»·PEaware :: N147AT KDLO-KSAN

N147AT :: KDLO-KSAN

FLIGHT INFORMATION

Flight Status: Arrived
Operator: Privately registered:
United States
More flights under this callsign
Pilot: Anonymous 18613 (18613)
Aircraft: CESSNA 172 SKYHAWK
(C172)
More flights by this aircraft type
Origin: KDLO Delano Mun
United States
Destination: KSAN San Diego Intl-Lindbergh
United States
More flights between these airports :: More routes between these airports
Route: +LHS V459 SLI V23 MZB
File this flight plan on PilotEdge
Remarks: KDLO ODP
Altitude:
(Current/Filed)
10,000ft
Speed:
(Current/Filed)
120kts
Departed: 07-Oct-18 03:27 PM
Arrived: 07-Oct-18 05:32 PM
Distance/Time
Traveled:
207nm/2:05
Distance/Time
To Go:
Arrived

Flight Plot

Page will automatically refresh every two minutes.

Flight plan parsing failed; only flown route is shown


Map Options




Map Legend


Flown Route
Filed Route
Departure Airport
Arrival Airport
Navaid (VOR, NDB)
Fix

Horizontal Profiles

Position Reports

Time Latitude Longitude Heading Altitude Ground
Speed
07-Oct-18 15:17 35.744570 -119.238339 69 316ft 0kts
07-Oct-18 15:18 35.744570 -119.238339 69 316ft 0kts
07-Oct-18 15:19 35.744570 -119.238339 69 316ft 0kts
07-Oct-18 15:20 35.744570 -119.238339 69 316ft 0kts
07-Oct-18 15:21 35.744570 -119.238339 69 316ft 0kts
07-Oct-18 15:22 35.744570 -119.238339 69 316ft 0kts
07-Oct-18 15:23 35.744570 -119.238339 69 316ft 0kts
07-Oct-18 15:24 35.743810 -119.237357 158 316ft 10kts
07-Oct-18 15:25 35.740032 -119.235574 158 316ft 14kts
07-Oct-18 15:26 35.738593 -119.233981 112 316ft 0kts
07-Oct-18 15:27 35.738417 -119.233442 108 316ft 4kts
07-Oct-18 15:28 35.738766 -119.233248 339 316ft 21kts
07-Oct-18 15:29 35.757421 -119.241627 335 764ft 82kts
07-Oct-18 15:30 35.778593 -119.253101 338 1451ft 84kts
07-Oct-18 15:31 35.800181 -119.264091 337 2116ft 84kts
07-Oct-18 15:32 35.821557 -119.275115 337 2750ft 83kts
07-Oct-18 15:33 35.839644 -119.270584 94 3314ft 88kts
07-Oct-18 15:34 35.818421 -119.256003 157 3842ft 95kts
07-Oct-18 15:35 35.793496 -119.244286 155 4335ft 99kts
07-Oct-18 15:36 35.767803 -119.231688 156 4822ft 104kts
07-Oct-18 15:37 35.740573 -119.218632 156 5318ft 105kts
07-Oct-18 15:38 35.713247 -119.205646 156 5811ft 105kts
07-Oct-18 15:39 35.686078 -119.192791 155 6304ft 103kts
07-Oct-18 15:40 35.659552 -119.180258 155 6795ft 101kts
07-Oct-18 15:41 35.632863 -119.167579 155 7211ft 106kts
07-Oct-18 15:42 35.604833 -119.154250 155 7608ft 110kts
07-Oct-18 15:43 35.576441 -119.139346 152 8004ft 112kts
07-Oct-18 15:44 35.547574 -119.124623 160 8398ft 113kts
07-Oct-18 15:45 35.517657 -119.112929 162 8794ft 112kts
07-Oct-18 15:46 35.487774 -119.102610 165 9189ft 111kts
07-Oct-18 15:47 35.458468 -119.092657 160 9584ft 108kts
07-Oct-18 15:48 35.430571 -119.080681 158 9941ft 108kts
07-Oct-18 15:49 35.399106 -119.066781 156 10017ft 132kts
07-Oct-18 15:50 35.362846 -119.050863 160 10025ft 142kts
07-Oct-18 15:51 35.324386 -119.037642 164 10030ft 144kts
07-Oct-18 15:52 35.285471 -119.025028 164 10037ft 145kts
07-Oct-18 15:53 35.246642 -119.011889 163 10046ft 144kts
07-Oct-18 15:54 35.208067 -118.998617 163 10055ft 144kts
07-Oct-18 15:55 35.169477 -118.984969 162 10066ft 144kts
07-Oct-18 15:56 35.131159 -118.971208 163 10078ft 143kts
07-Oct-18 15:57 35.093031 -118.957799 163 10091ft 143kts
07-Oct-18 15:58 35.054517 -118.944900 166 10105ft 143kts
07-Oct-18 15:59 35.015684 -118.931700 162 10042ft 147kts
07-Oct-18 16:00 34.981073 -118.919228 163 10056ft 144kts
07-Oct-18 16:01 34.948360 -118.894829 128 10079ft 139kts
07-Oct-18 16:02 34.922397 -118.860025 126 10098ft 138kts
07-Oct-18 16:03 34.897324 -118.826258 126 10113ft 136kts
07-Oct-18 16:04 34.872760 -118.791497 123 10103ft 134kts
07-Oct-18 16:05 34.846814 -118.758731 131 10091ft 135kts
07-Oct-18 16:06 34.819657 -118.727467 131 10082ft 134kts
07-Oct-18 16:07 34.796925 -118.701462 131 10075ft 134kts
07-Oct-18 16:08 34.769728 -118.670456 131 10068ft 134kts
07-Oct-18 16:09 34.736308 -118.636588 138 10058ft 134kts
07-Oct-18 16:10 34.711616 -118.613805 137 10052ft 133kts
07-Oct-18 16:11 34.682373 -118.586519 136 10046ft 132kts
07-Oct-18 16:12 34.652914 -118.559980 149 10036ft 133kts
07-Oct-18 16:13 34.619514 -118.540926 148 10030ft 132kts
07-Oct-18 16:14 34.586415 -118.521737 149 10023ft 131kts
07-Oct-18 16:15 34.553842 -118.503121 149 10016ft 131kts
07-Oct-18 16:16 34.518777 -118.483201 149 9637ft 147kts
07-Oct-18 16:17 34.481391 -118.462124 149 9132ft 148kts
07-Oct-18 16:18 34.445854 -118.442122 148 9004ft 133kts
07-Oct-18 16:19 34.413311 -118.423684 147 8994ft 126kts
07-Oct-18 16:20 34.381627 -118.405741 147 8985ft 125kts
07-Oct-18 16:21 34.350267 -118.388041 148 8976ft 124kts
07-Oct-18 16:22 34.319026 -118.370355 147 8968ft 124kts
07-Oct-18 16:23 34.287734 -118.352749 147 8960ft 123kts
07-Oct-18 16:24 34.257963 -118.335657 145 8965ft 123kts
07-Oct-18 16:25 34.227679 -118.316568 145 8974ft 122kts
07-Oct-18 16:26 34.197868 -118.295968 152 8975ft 128kts
07-Oct-18 16:27 34.165186 -118.276685 161 8975ft 132kts
07-Oct-18 16:28 34.131562 -118.259451 158 8976ft 133kts
07-Oct-18 16:29 34.099537 -118.241660 157 8977ft 134kts
07-Oct-18 16:30 34.065934 -118.222034 156 8979ft 134kts
07-Oct-18 16:31 34.032421 -118.202081 155 8983ft 134kts
07-Oct-18 16:32 33.998812 -118.182166 155 8988ft 135kts
07-Oct-18 16:33 33.965338 -118.162292 155 8994ft 134kts
07-Oct-18 16:34 33.931716 -118.142338 155 9002ft 134kts
07-Oct-18 16:35 33.899984 -118.123577 154 9009ft 134kts
07-Oct-18 16:36 33.868076 -118.104931 154 9001ft 134kts
07-Oct-18 16:37 33.834500 -118.085092 156 8992ft 134kts
07-Oct-18 16:38 33.801027 -118.065350 156 8985ft 134kts
07-Oct-18 16:39 33.769467 -118.042279 129 8982ft 134kts
07-Oct-18 16:40 33.745326 -118.007915 133 8977ft 135kts
07-Oct-18 16:41 33.717800 -117.977207 138 8971ft 135kts
07-Oct-18 16:42 33.690096 -117.946390 136 8968ft 135kts
07-Oct-18 16:43 33.663208 -117.915053 136 8966ft 135kts
07-Oct-18 16:44 33.636112 -117.883585 136 8964ft 135kts
07-Oct-18 16:45 33.609080 -117.852173 137 8964ft 135kts
07-Oct-18 16:46 33.581972 -117.820801 135 8964ft 135kts
07-Oct-18 16:47 33.554790 -117.789386 136 8966ft 135kts
07-Oct-18 16:48 33.527623 -117.757870 135 8968ft 135kts
07-Oct-18 16:49 33.500514 -117.726571 136 8971ft 136kts
07-Oct-18 16:50 33.473114 -117.695416 138 8974ft 136kts
07-Oct-18 16:51 33.444913 -117.665207 135 8979ft 135kts
07-Oct-18 16:52 33.418565 -117.632938 129 8985ft 135kts
07-Oct-18 16:53 33.392110 -117.600606 131 8990ft 136kts
07-Oct-18 16:54 33.365670 -117.568578 132 8997ft 135kts
07-Oct-18 16:55 33.339144 -117.536446 131 9004ft 136kts
07-Oct-18 16:56 33.312502 -117.504449 134 9013ft 136kts
07-Oct-18 16:57 33.285821 -117.472460 134 9023ft 136kts
07-Oct-18 16:58 33.259619 -117.440985 134 9033ft 135kts
07-Oct-18 16:59 33.232836 -117.409503 148 9040ft 136kts
07-Oct-18 17:00 33.196263 -117.400593 162 9050ft 135kts
07-Oct-18 17:01 33.160913 -117.385379 158 9055ft 136kts
07-Oct-18 17:02 33.125128 -117.368759 163 8993ft 136kts
07-Oct-18 17:03 33.089580 -117.353514 159 9009ft 136kts
07-Oct-18 17:04 33.054473 -117.338178 165 9014ft 137kts
07-Oct-18 17:05 33.018415 -117.323241 165 9017ft 138kts
07-Oct-18 17:06 32.981942 -117.308089 166 9020ft 139kts
07-Oct-18 17:07 32.945357 -117.292684 165 8969ft 144kts
07-Oct-18 17:08 32.906244 -117.274507 166 8237ft 158kts
07-Oct-18 17:09 32.866686 -117.259397 168 7182ft 151kts
07-Oct-18 17:10 32.827610 -117.243734 166 6096ft 146kts
07-Oct-18 17:11 32.791770 -117.225066 123 5192ft 142kts
07-Oct-18 17:12 32.779247 -117.180273 110 4997ft 141kts
07-Oct-18 17:13 32.766919 -117.136057 110 4983ft 142kts
07-Oct-18 17:14 32.754299 -117.091520 108 5063ft 142kts
07-Oct-18 17:15 32.740131 -117.047409 109 5074ft 144kts
07-Oct-18 17:16 32.726116 -117.002669 110 4993ft 144kts
07-Oct-18 17:17 32.712188 -116.959073 110 4966ft 139kts
07-Oct-18 17:18 32.698949 -116.916092 110 4949ft 135kts
07-Oct-18 17:19 32.686534 -116.874345 112 4973ft 134kts
07-Oct-18 17:20 32.672470 -116.833582 111 4996ft 132kts
07-Oct-18 17:21 32.650228 -116.828991 292 4964ft 119kts
07-Oct-18 17:22 32.657471 -116.865557 266 5026ft 118kts
07-Oct-18 17:23 32.665112 -116.903742 284 4992ft 120kts
07-Oct-18 17:24 32.673054 -116.941692 287 4878ft 117kts
07-Oct-18 17:25 32.685000 -116.977323 289 3693ft 112kts
07-Oct-18 17:26 32.690875 -117.012934 284 2808ft 96kts
07-Oct-18 17:27 32.697803 -117.040468 279 2701ft 74kts
07-Oct-18 17:28 32.703857 -117.063981 296 2555ft 77kts
07-Oct-18 17:29 32.709345 -117.087658 279 1792ft 74kts
07-Oct-18 17:30 32.714932 -117.110970 278 1124ft 72kts
07-Oct-18 17:31 32.720180 -117.133906 282 588ft 76kts
07-Oct-18 17:32 32.725897 -117.158344 282 515ft 77kts
07-Oct-18 17:33 32.731933 -117.183058 280 21ft 65kts
07-Oct-18 17:34 32.734028 -117.188039 7 21ft 5kts
07-Oct-18 17:35 32.735219 -117.189366 101 21ft 0kts
07-Oct-18 17:36 32.735219 -117.189366 102 21ft 0kts
07-Oct-18 17:37 32.735219 -117.189366 102 21ft 0kts
07-Oct-18 17:38 32.735219 -117.189366 102 21ft 0kts

Navigation Log

Ident Type
Flight plan parsing failed, navigation log unavailable